Terminal Aerodrome Forecast
Issued by NWS Cleveland, OH

Home | Current Version | Previous Version | Graphics & Text | Print | Product List | Glossary On
Versions: 1 2 3 4 5 6 7 8 9 10 11 12 13 14 15
000
FTUS41 KCLE 072331
TAFCAK
TAF
KCAK 072331Z 0800/0824 20010KT P6SM SCT050 OVC120
     FM080800 19006KT P6SM -RA OVC045
      TEMPO 0808/0810 5SM -RASN BR OVC025
     FM081000 18006KT 3SM -RASN BR OVC010
     FM081400 20006KT 1SM -SN BR OVC006
     FM081900 24008KT 3SM -SN OVC012=

USA.gov is the U.S. government's official web portal to all federal, state and local government web resources and services.